Time;durP1;ratioP1;P1;durP2;ratioP2;P2;SDS_P1;SDS_P2;PMS_P1;PMS_P2;Temp;Humidity;BMP_temperature;BMP_pressure;BME280_temperature;BME280_humidity;BME280_pressure;Samples;Min_cycle;Max_cycle;Signal;HPM_P1;HPM_P2
2022/09/29 00:00:11;;;;;;;21.80;13.70;;;5.00;99.90;;;;;;5115595;28;20766;-76
2022/09/29 00:02:37;;;;;;;17.90;12.97;;;5.00;99.90;;;;;;5115588;27;20203;-77
2022/09/29 00:05:05;;;;;;;18.17;13.13;;;5.10;99.90;;;;;;5115780;28;20226;-76
2022/09/29 00:07:33;;;;;;;16.17;12.17;;;5.10;99.90;;;;;;5115464;28;20658;-76
2022/09/29 00:10:00;;;;;;;19.53;13.90;;;5.10;99.90;;;;;;5115557;28;20661;-74
2022/09/29 00:12:27;;;;;;;18.87;12.87;;;5.10;99.90;;;;;;5115946;28;20260;-76
2022/09/29 00:14:53;;;;;;;17.63;13.47;;;5.10;99.90;;;;;;5115380;28;20206;-76
2022/09/29 00:17:20;;;;;;;21.17;13.90;;;5.20;99.90;;;;;;5115586;28;20256;-75
2022/09/29 00:19:47;;;;;;;21.57;13.57;;;5.30;99.90;;;;;;5115352;28;20287;-76
2022/09/29 00:22:14;;;;;;;16.73;12.63;;;5.30;99.90;;;;;;5115078;28;20625;-76
2022/09/29 00:24:42;;;;;;;18.23;13.40;;;5.40;99.90;;;;;;5115344;28;20200;-75
2022/09/29 00:27:08;;;;;;;20.37;13.87;;;5.40;99.90;;;;;;5115135;28;20195;-76
2022/09/29 00:29:35;;;;;;;22.53;13.87;;;5.40;99.90;;;;;;5114992;28;20659;-75
2022/09/29 00:32:02;;;;;;;22.47;14.90;;;5.30;99.90;;;;;;5114411;27;20192;-76
2022/09/29 00:34:28;;;;;;;26.03;16.00;;;5.20;99.90;;;;;;5115335;28;20199;-77
2022/09/29 00:36:55;;;;;;;21.73;14.63;;;5.30;99.90;;;;;;5115296;28;20205;-75
2022/09/29 00:39:22;;;;;;;33.40;18.40;;;5.30;99.90;;;;;;5115023;28;20231;-76
2022/09/29 00:41:50;;;;;;;24.77;14.60;;;5.20;99.90;;;;;;5114930;28;20201;-76
2022/09/29 00:44:55;;;;;;;21.03;14.10;;;5.30;99.90;;;;;;5114858;28;20199;-76
2022/09/29 00:47:24;;;;;;;23.27;13.70;;;5.30;99.90;;;;;;5083622;28;20650;-76
2022/09/29 00:49:55;;;;;;;16.77;13.03;;;5.30;99.90;;;;;;5114788;28;20272;-76
2022/09/29 00:52:27;;;;;;;18.33;13.60;;;5.40;99.90;;;;;;5114910;28;20597;-76
2022/09/29 00:54:58;;;;;;;19.37;13.53;;;5.40;99.90;;;;;;5114752;28;20200;-76
2022/09/29 00:57:32;;;;;;;19.50;13.50;;;5.40;99.90;;;;;;5115061;28;20332;-76
2022/09/29 01:00:02;;;;;;;18.07;14.00;;;5.40;99.90;;;;;;5115061;28;20261;-76
2022/09/29 01:02:32;;;;;;;16.23;12.90;;;5.30;99.90;;;;;;5115131;28;20540;-76
2022/09/29 01:05:00;;;;;;;19.87;12.60;;;5.40;99.90;;;;;;5114678;28;20716;-74
2022/09/29 01:07:27;;;;;;;16.40;12.07;;;5.40;99.90;;;;;;5115035;28;20227;-74
2022/09/29 01:09:56;;;;;;;15.90;13.07;;;5.30;99.90;;;;;;5114934;28;20200;-76
2022/09/29 01:12:24;;;;;;;14.90;12.37;;;5.30;99.90;;;;;;5121766;28;20203;-77
2022/09/29 01:14:53;;;;;;;19.43;12.73;;;5.30;99.90;;;;;;5119243;28;20199;-76
2022/09/29 01:17:20;;;;;;;20.27;12.70;;;5.20;99.90;;;;;;5131491;28;20198;-74
2022/09/29 01:19:53;;;;;;;16.40;12.20;;;5.20;99.90;;;;;;5122571;28;20218;-76
2022/09/29 01:22:46;;;;;;;18.33;13.83;;;5.30;99.90;;;;;;5130555;28;20234;-75
2022/09/29 01:25:36;;;;;;;18.17;12.07;;;5.20;99.90;;;;;;5114338;28;20195;-75
2022/09/29 01:28:24;;;;;;;20.37;13.43;;;5.10;99.90;;;;;;5114012;28;20195;-75
2022/09/29 01:31:08;;;;;;;17.17;12.80;;;5.20;99.90;;;;;;5114208;28;20202;-75
2022/09/29 01:33:44;;;;;;;18.97;12.50;;;5.10;99.90;;;;;;5114074;28;20199;-75
2022/09/29 01:36:22;;;;;;;15.93;12.20;;;5.20;99.90;;;;;;5113996;28;20198;-75
2022/09/29 01:39:00;;;;;;;20.13;12.00;;;5.00;99.90;;;;;;5114022;28;20268;-75
2022/09/29 01:41:32;;;;;;;17.03;11.93;;;4.90;99.90;;;;;;5113921;28;20210;-75
2022/09/29 01:44:06;;;;;;;17.83;11.80;;;4.80;99.90;;;;;;5113698;28;20563;-75
2022/09/29 01:46:38;;;;;;;17.93;13.03;;;4.80;99.90;;;;;;5113884;28;20647;-75
2022/09/29 01:49:06;;;;;;;17.80;13.20;;;4.70;99.90;;;;;;5113654;28;20570;-75
2022/09/29 01:51:41;;;;;;;20.27;13.10;;;4.80;99.90;;;;;;5114120;28;20294;-75
2022/09/29 01:54:14;;;;;;;18.23;13.13;;;4.80;99.90;;;;;;5113865;28;20650;-74
2022/09/29 01:56:46;;;;;;;15.63;12.97;;;4.80;99.90;;;;;;5113749;28;20235;-75
2022/09/29 01:59:18;;;;;;;18.83;13.23;;;4.90;99.90;;;;;;5113755;28;20214;-75
2022/09/29 02:01:50;;;;;;;22.57;14.80;;;5.00;99.90;;;;;;5113991;28;20203;-74
2022/09/29 02:04:21;;;;;;;19.03;14.13;;;5.10;99.90;;;;;;5112567;28;20206;-75
2022/09/29 02:06:54;;;;;;;16.80;12.73;;;5.00;99.90;;;;;;5113767;28;20202;-75
2022/09/29 02:09:23;;;;;;;22.17;12.90;;;4.90;99.90;;;;;;5113487;28;20727;-75
2022/09/29 02:11:52;;;;;;;18.50;12.77;;;4.80;99.90;;;;;;5113539;28;20257;-75
2022/09/29 02:14:23;;;;;;;17.60;13.43;;;4.90;99.90;;;;;;5113724;28;20198;-75
2022/09/29 02:16:57;;;;;;;19.90;13.77;;;4.90;99.90;;;;;;5113737;28;20563;-75
2022/09/29 02:19:26;;;;;;;20.90;13.23;;;4.90;99.90;;;;;;5113729;28;20222;-75
2022/09/29 02:21:54;;;;;;;17.00;12.63;;;4.80;99.90;;;;;;5113460;28;20226;-75
2022/09/29 02:24:22;;;;;;;18.77;12.67;;;4.70;99.90;;;;;;5113602;28;20244;-75
2022/09/29 02:26:49;;;;;;;17.40;12.90;;;4.70;99.90;;;;;;5113660;28;20203;-75
2022/09/29 02:29:17;;;;;;;22.63;13.10;;;4.60;99.90;;;;;;5113482;28;20201;-75
2022/09/29 02:31:45;;;;;;;17.90;12.30;;;4.70;99.90;;;;;;5113456;28;20257;-75
2022/09/29 02:34:17;;;;;;;17.43;13.10;;;4.60;99.90;;;;;;5113506;28;20195;-75
2022/09/29 02:36:57;;;;;;;16.53;11.80;;;4.60;99.90;;;;;;5113352;28;20198;-75
2022/09/29 02:39:34;;;;;;;22.37;13.00;;;4.50;99.90;;;;;;5113655;28;20218;-75
2022/09/29 02:42:12;;;;;;;18.53;12.00;;;4.50;99.90;;;;;;5113661;28;20193;-75
2022/09/29 02:45:00;;;;;;;15.97;12.27;;;4.50;99.90;;;;;;5113643;28;20193;-75
2022/09/29 02:47:55;;;;;;;16.97;12.70;;;4.40;99.90;;;;;;5113542;28;20199;-75
2022/09/29 02:50:44;;;;;;;15.37;12.07;;;4.40;99.90;;;;;;5113535;28;20559;-75
2022/09/29 02:53:21;;;;;;;19.30;12.87;;;4.30;99.90;;;;;;5113484;28;20200;-75
2022/09/29 02:55:57;;;;;;;15.10;11.67;;;4.30;99.90;;;;;;5117361;28;20202;-75
2022/09/29 02:58:30;;;;;;;16.77;11.70;;;4.20;99.90;;;;;;5117688;28;20610;-75
2022/09/29 03:00:58;;;;;;;18.00;12.73;;;4.20;99.90;;;;;;5117349;28;20255;-75
2022/09/29 03:03:25;;;;;;;19.20;12.13;;;4.20;99.90;;;;;;5117547;27;20246;-75
2022/09/29 03:05:53;;;;;;;23.30;13.77;;;4.10;99.90;;;;;;5117357;28;20251;-75
2022/09/29 03:08:20;;;;;;;19.13;13.87;;;4.20;99.90;;;;;;5117478;28;20194;-75
2022/09/29 03:10:47;;;;;;;22.50;15.67;;;4.30;99.90;;;;;;5117515;28;20468;-75
2022/09/29 03:13:13;;;;;;;25.70;15.87;;;4.20;99.90;;;;;;5117641;28;20532;-75
2022/09/29 03:15:40;;;;;;;22.00;14.77;;;4.20;99.90;;;;;;5117483;28;20271;-75
2022/09/29 03:18:07;;;;;;;23.03;14.90;;;4.30;99.90;;;;;;5117327;28;20206;-75
2022/09/29 03:20:33;;;;;;;19.27;13.53;;;4.30;99.90;;;;;;5117177;28;20219;-74
2022/09/29 03:23:01;;;;;;;24.60;15.23;;;4.30;99.90;;;;;;5117521;28;20234;-75
2022/09/29 03:25:28;;;;;;;31.20;16.00;;;4.30;99.90;;;;;;5117292;28;20204;-74
2022/09/29 03:27:55;;;;;;;28.90;15.53;;;4.30;99.90;;;;;;5117411;28;20224;-74
2022/09/29 03:30:22;;;;;;;28.07;15.70;;;4.30;99.90;;;;;;5117270;28;20201;-74
2022/09/29 03:32:49;;;;;;;23.07;14.40;;;4.30;99.90;;;;;;5116840;28;20242;-75
2022/09/29 03:35:15;;;;;;;27.57;14.77;;;4.30;99.90;;;;;;5117363;28;20861;-75
2022/09/29 03:37:42;;;;;;;23.67;15.33;;;4.30;99.90;;;;;;5117321;28;20200;-74
2022/09/29 03:40:11;;;;;;;27.13;16.70;;;4.30;99.90;;;;;;5117273;28;20225;-74
2022/09/29 03:42:38;;;;;;;25.57;15.57;;;4.30;99.90;;;;;;5117056;28;20228;-74
2022/09/29 03:45:05;;;;;;;23.33;15.13;;;4.40;99.90;;;;;;5117518;28;20246;-74
2022/09/29 03:47:32;;;;;;;25.83;15.17;;;4.40;99.90;;;;;;5116673;28;20255;-74
2022/09/29 03:49:59;;;;;;;32.20;16.83;;;4.40;99.90;;;;;;5116908;28;20202;-74
2022/09/29 03:52:25;;;;;;;25.77;16.30;;;4.40;99.90;;;;;;5116807;28;20657;-74
2022/09/29 03:54:52;;;;;;;34.03;18.47;;;4.50;99.90;;;;;;5117147;28;20234;-74
2022/09/29 03:57:20;;;;;;;33.13;17.37;;;4.50;99.90;;;;;;5116893;27;20573;-74
2022/09/29 03:59:47;;;;;;;32.43;17.30;;;4.50;99.90;;;;;;5122457;27;20222;-76
2022/09/29 04:02:17;;;;;;;26.53;16.20;;;4.50;99.90;;;;;;5123692;28;20592;-74
2022/09/29 04:04:43;;;;;;;28.57;16.73;;;4.60;99.90;;;;;;5126689;28;20194;-75
2022/09/29 04:07:10;;;;;;;24.80;16.30;;;4.70;99.90;;;;;;5123709;27;20197;-76
2022/09/29 04:09:37;;;;;;;32.43;17.60;;;4.60;99.90;;;;;;5123843;28;20212;-75
2022/09/29 04:12:04;;;;;;;22.53;16.17;;;4.60;99.90;;;;;;5120765;28;20205;-75
2022/09/29 04:14:32;;;;;;;26.93;16.07;;;4.70;99.90;;;;;;5115816;28;20201;-74
2022/09/29 04:16:59;;;;;;;23.67;16.70;;;4.70;99.90;;;;;;5115492;28;20200;-75
2022/09/29 04:19:26;;;;;;;24.37;16.53;;;4.70;99.90;;;;;;5115497;28;20741;-75
2022/09/29 04:21:52;;;;;;;28.23;17.30;;;4.80;99.90;;;;;;5115522;28;20669;-75
2022/09/29 04:24:19;;;;;;;28.10;16.27;;;4.70;99.90;;;;;;5115445;27;20227;-75
2022/09/29 04:26:45;;;;;;;24.67;16.60;;;4.80;99.90;;;;;;5115332;28;20256;-75
2022/09/29 04:29:12;;;;;;;25.80;18.40;;;4.80;99.90;;;;;;5115354;28;20227;-74
2022/09/29 04:31:40;;;;;;;27.90;18.40;;;4.90;99.90;;;;;;5115721;28;20322;-76
2022/09/29 04:34:07;;;;;;;25.80;18.17;;;4.90;99.90;;;;;;5115187;28;20586;-76
2022/09/29 04:36:33;;;;;;;26.20;16.77;;;4.90;99.90;;;;;;5115154;28;20248;-75
2022/09/29 04:39:00;;;;;;;29.37;18.77;;;4.90;99.90;;;;;;5115280;28;20197;-77
2022/09/29 04:41:27;;;;;;;31.13;19.23;;;4.90;99.90;;;;;;5114870;28;20227;-75
2022/09/29 04:43:54;;;;;;;30.67;18.97;;;4.90;99.90;;;;;;5115241;28;20225;-76
2022/09/29 04:46:21;;;;;;;29.00;20.77;;;5.00;99.90;;;;;;5115242;28;20202;-75
2022/09/29 04:48:49;;;;;;;33.77;20.40;;;5.00;99.90;;;;;;5115163;28;20203;-75
2022/09/29 04:51:15;;;;;;;33.20;21.03;;;5.00;99.90;;;;;;5115172;28;20614;-75
2022/09/29 04:53:42;;;;;;;33.27;20.83;;;5.00;99.90;;;;;;5115013;28;20617;-75
2022/09/29 04:56:09;;;;;;;36.60;23.47;;;5.00;99.90;;;;;;5115490;28;20206;-76
2022/09/29 04:58:36;;;;;;;32.70;23.03;;;5.00;99.90;;;;;;5114776;28;20207;-76
2022/09/29 05:01:07;;;;;;;34.50;22.17;;;5.10;99.90;;;;;;5114619;28;20225;-76
2022/09/29 05:03:34;;;;;;;36.33;22.87;;;5.00;99.90;;;;;;5114587;28;20199;-75
2022/09/29 05:06:02;;;;;;;36.77;23.03;;;5.00;99.90;;;;;;5114333;28;20256;-75
2022/09/29 05:08:29;;;;;;;41.43;21.23;;;5.00;99.90;;;;;;5114382;27;20201;-76
2022/09/29 05:10:56;;;;;;;38.10;22.40;;;5.00;99.90;;;;;;5114177;28;20203;-75
2022/09/29 05:13:23;;;;;;;35.00;21.60;;;4.90;99.90;;;;;;5114437;28;20195;-77
2022/09/29 05:15:50;;;;;;;36.40;22.27;;;4.90;99.90;;;;;;5114550;28;20280;-75
2022/09/29 05:18:16;;;;;;;38.37;22.07;;;4.90;99.90;;;;;;5113754;28;20600;-75
2022/09/29 05:20:43;;;;;;;36.77;22.70;;;5.00;99.90;;;;;;5114148;28;20669;-75
2022/09/29 05:23:11;;;;;;;32.63;20.90;;;4.90;99.90;;;;;;5114376;28;20275;-74
2022/09/29 05:25:39;;;;;;;38.50;21.97;;;4.90;99.90;;;;;;5114268;28;20202;-75
2022/09/29 05:28:05;;;;;;;34.30;20.57;;;4.80;99.90;;;;;;5114504;28;20255;-75
2022/09/29 05:30:32;;;;;;;34.93;20.27;;;4.70;99.90;;;;;;5114163;28;20602;-75
2022/09/29 05:32:59;;;;;;;33.20;20.10;;;4.70;99.90;;;;;;5114349;28;20254;-75
2022/09/29 05:35:25;;;;;;;38.00;22.50;;;4.70;99.90;;;;;;5113987;28;20607;-75
2022/09/29 05:37:52;;;;;;;42.70;22.40;;;4.80;99.90;;;;;;5113775;28;20563;-75
2022/09/29 05:40:22;;;;;;;37.43;22.07;;;4.80;99.90;;;;;;5113903;28;20259;-75
2022/09/29 05:42:49;;;;;;;43.33;24.13;;;4.80;99.90;;;;;;5113962;28;20198;-75
2022/09/29 05:45:16;;;;;;;42.43;24.37;;;5.00;99.90;;;;;;5113858;28;20199;-75
2022/09/29 05:47:43;;;;;;;38.00;23.03;;;5.00;99.90;;;;;;5113532;28;20213;-75
2022/09/29 05:50:11;;;;;;;46.40;29.43;;;5.20;99.90;;;;;;5113632;28;20536;-77
2022/09/29 05:52:37;;;;;;;43.73;27.67;;;5.20;99.90;;;;;;5113850;28;20601;-76
2022/09/29 05:55:08;;;;;;;42.63;25.60;;;5.30;99.90;;;;;;5113218;28;20252;-75
2022/09/29 05:57:37;;;;;;;37.17;23.50;;;5.30;99.90;;;;;;5113885;28;20536;-76
2022/09/29 06:00:05;;;;;;;41.37;24.73;;;5.30;99.90;;;;;;5113795;28;20195;-77
2022/09/29 06:02:32;;;;;;;41.03;24.90;;;5.40;99.90;;;;;;5113528;28;20195;-75
2022/09/29 06:04:59;;;;;;;38.10;22.60;;;5.50;99.90;;;;;;5113498;28;20230;-76
2022/09/29 06:07:26;;;;;;;40.43;22.53;;;5.50;99.90;;;;;;5113968;28;20199;-74
2022/09/29 06:09:52;;;;;;;41.60;22.27;;;5.50;99.90;;;;;;5113900;28;20259;-76
2022/09/29 06:12:19;;;;;;;38.70;22.73;;;5.60;99.90;;;;;;5113660;28;20204;-77
2022/09/29 06:14:47;;;;;;;34.87;21.43;;;5.70;99.90;;;;;;5113761;28;20203;-77
2022/09/29 06:17:14;;;;;;;34.00;21.20;;;5.80;99.90;;;;;;5113381;28;20202;-73
2022/09/29 06:19:41;;;;;;;35.17;21.27;;;5.90;99.90;;;;;;5113238;28;20191;-73
2022/09/29 06:22:07;;;;;;;33.93;20.50;;;6.00;99.90;;;;;;5113112;28;20238;-73
2022/09/29 06:24:34;;;;;;;36.27;20.37;;;6.00;99.90;;;;;;5113324;28;20187;-74
2022/09/29 06:27:01;;;;;;;31.43;20.33;;;6.10;99.90;;;;;;5113238;28;20203;-73
2022/09/29 06:29:27;;;;;;;38.60;24.77;;;6.20;99.90;;;;;;5114641;28;20198;-73
2022/09/29 06:31:55;;;;;;;39.67;22.33;;;6.30;99.90;;;;;;5117350;28;20589;-73
2022/09/29 06:34:22;;;;;;;34.73;23.83;;;6.40;99.90;;;;;;5117117;28;20625;-74
2022/09/29 06:39:33;;;;;;;35.97;24.83;;;6.70;99.90;;;;;;5117071;28;20198;-74
2022/09/29 06:42:00;;;;;;;32.83;22.57;;;6.70;99.90;;;;;;5116932;27;20227;-74
2022/09/29 06:44:29;;;;;;;33.03;19.80;;;6.80;99.90;;;;;;5116981;28;20276;-74
2022/09/29 06:46:58;;;;;;;26.47;18.93;;;6.90;99.90;;;;;;5117582;28;20262;-74
2022/09/29 06:49:25;;;;;;;28.33;19.40;;;7.00;99.90;;;;;;5124238;28;20195;-72
2022/09/29 06:51:52;;;;;;;27.17;19.27;;;7.20;99.90;;;;;;5127977;28;20202;-73
2022/09/29 06:54:20;;;;;;;26.10;18.87;;;7.40;99.90;;;;;;5128278;28;20205;-74
2022/09/29 06:56:47;;;;;;;24.47;18.97;;;7.60;99.90;;;;;;5128106;28;20201;-74
2022/09/29 06:59:14;;;;;;;32.47;18.70;;;7.70;99.90;;;;;;5123301;28;20215;-73
2022/09/29 07:01:41;;;;;;;23.43;16.97;;;7.80;99.90;;;;;;5117252;28;20227;-74
2022/09/29 07:04:09;;;;;;;19.23;15.13;;;7.90;99.90;;;;;;5116740;27;20249;-74
2022/09/29 07:06:36;;;;;;;22.73;15.03;;;7.90;99.90;;;;;;5116578;28;20192;-74
2022/09/29 07:09:02;;;;;;;17.43;13.90;;;7.90;99.90;;;;;;5116514;28;20241;-73
2022/09/29 07:11:29;;;;;;;16.10;13.53;;;8.00;99.90;;;;;;5116444;28;20195;-74
2022/09/29 07:13:56;;;;;;;19.23;13.83;;;8.20;99.90;;;;;;5116518;28;20207;-74
2022/09/29 07:16:23;;;;;;;17.53;12.90;;;8.40;99.90;;;;;;5116552;28;20204;-74
2022/09/29 07:18:50;;;;;;;18.23;14.77;;;8.50;99.90;;;;;;5116547;28;20203;-74
2022/09/29 07:21:20;;;;;;;17.90;12.63;;;8.70;99.90;;;;;;5116328;28;20227;-73
2022/09/29 07:23:47;;;;;;;15.23;10.73;;;8.70;99.90;;;;;;5115166;28;20200;-73
2022/09/29 07:26:15;;;;;;;12.17;10.67;;;8.80;99.90;;;;;;5114847;28;20196;-74
2022/09/29 07:28:42;;;;;;;11.73;10.10;;;8.80;99.90;;;;;;5115065;28;20242;-74
2022/09/29 07:31:12;;;;;;;12.67;10.53;;;8.90;99.90;;;;;;5114944;28;20273;-74
2022/09/29 07:33:38;;;;;;;15.30;10.87;;;8.90;99.90;;;;;;5114806;28;20199;-74
2022/09/29 07:36:05;;;;;;;12.30;9.70;;;8.90;99.90;;;;;;5114767;28;20217;-74
2022/09/29 07:38:33;;;;;;;12.50;10.97;;;8.90;99.90;;;;;;5114596;28;20237;-73
2022/09/29 07:41:01;;;;;;;12.10;10.90;;;8.90;99.90;;;;;;5114353;28;20632;-73
2022/09/29 07:43:29;;;;;;;11.77;9.63;;;8.80;99.90;;;;;;5114941;28;20219;-74
2022/09/29 07:45:55;;;;;;;10.43;9.27;;;8.90;99.90;;;;;;5114581;28;20550;-74
2022/09/29 07:48:22;;;;;;;15.43;10.53;;;9.10;99.90;;;;;;5114551;28;20651;-74
2022/09/29 07:50:51;;;;;;;12.03;10.53;;;9.40;99.90;;;;;;5114450;28;20282;-74
2022/09/29 07:53:18;;;;;;;13.47;9.53;;;9.80;99.90;;;;;;5114532;28;20202;-74
2022/09/29 07:55:46;;;;;;;11.43;9.47;;;10.20;99.90;;;;;;5114614;28;20279;-74
2022/09/29 07:58:12;;;;;;;10.23;8.70;;;10.50;99.90;;;;;;5114366;28;20554;-74
2022/09/29 08:00:39;;;;;;;12.77;9.03;;;10.80;99.90;;;;;;5114539;28;20203;-74
2022/09/29 08:03:07;;;;;;;10.17;8.83;;;10.90;99.90;;;;;;5114287;28;20195;-74
2022/09/29 08:05:34;;;;;;;10.47;8.10;;;11.10;99.90;;;;;;5114352;28;20227;-74
2022/09/29 08:08:03;;;;;;;8.27;7.33;;;11.00;99.90;;;;;;5114141;28;20626;-74
2022/09/29 08:10:30;;;;;;;8.90;8.00;;;11.20;99.90;;;;;;5114210;28;20199;-74
2022/09/29 08:12:59;;;;;;;10.73;8.00;;;11.30;99.90;;;;;;5114536;28;20200;-74
2022/09/29 08:15:26;;;;;;;9.77;8.17;;;11.50;99.90;;;;;;5114272;28;20199;-74
2022/09/29 08:17:54;;;;;;;7.90;7.10;;;11.80;99.90;;;;;;5114154;28;20272;-74
2022/09/29 08:20:21;;;;;;;8.47;7.50;;;12.20;99.90;;;;;;5114089;28;20550;-74
2022/09/29 08:22:48;;;;;;;9.07;7.23;;;12.30;99.90;;;;;;5078241;28;1030577;-74
2022/09/29 08:25:15;;;;;;;9.70;7.60;;;12.40;99.90;;;;;;5115436;28;20192;-74
2022/09/29 08:27:42;;;;;;;7.90;6.90;;;12.50;99.90;;;;;;5114985;28;20198;-74
2022/09/29 08:30:11;;;;;;;8.67;7.37;;;12.60;99.90;;;;;;5115146;28;20196;-74
2022/09/29 08:32:38;;;;;;;7.63;6.83;;;12.60;99.90;;;;;;5115038;28;20352;-75
2022/09/29 08:35:06;;;;;;;7.93;6.80;;;12.60;99.90;;;;;;5114932;28;20195;-75
2022/09/29 08:37:32;;;;;;;7.87;6.90;;;12.80;99.90;;;;;;5115194;28;20600;-75
2022/09/29 08:39:59;;;;;;;10.57;7.43;;;12.90;99.90;;;;;;5115492;28;20195;-75
2022/09/29 08:42:38;;;;;;;10.50;6.27;;;13.10;99.90;;;;;;5114922;28;20224;-74
2022/09/29 08:45:14;;;;;;;8.47;6.20;;;13.40;99.90;;;;;;5114997;28;20195;-75
2022/09/29 08:47:44;;;;;;;6.30;4.80;;;13.60;99.90;;;;;;5114704;28;20212;-75
2022/09/29 08:50:14;;;;;;;7.23;5.30;;;13.90;99.90;;;;;;5114898;28;20207;-75
2022/09/29 08:52:43;;;;;;;6.40;5.40;;;14.30;99.90;;;;;;5113895;28;20191;-75
2022/09/29 08:55:25;;;;;;;5.47;4.55;;;14.50;99.90;;;;;;5114590;28;20299;-75
2022/09/29 08:57:57;;;;;;;6.00;4.77;;;14.40;99.90;;;;;;5114328;28;20647;-75
2022/09/29 09:00:37;;;;;;;7.65;4.90;;;14.40;99.90;;;;;;5114619;28;20202;-75
2022/09/29 09:03:18;;;;;;;6.40;5.43;;;14.50;99.90;;;;;;5114706;28;20219;-75
2022/09/29 09:06:08;;;;;;;7.47;5.03;;;14.60;99.90;;;;;;5114396;28;20331;-75
2022/09/29 09:08:47;;;;;;;6.40;4.70;;;14.60;99.90;;;;;;5114129;28;20245;-74
2022/09/29 09:11:32;;;;;;;6.43;5.18;;;15.00;99.90;;;;;;5114397;28;20202;-75
2022/09/29 09:14:13;;;;;;;8.63;5.20;;;15.00;99.90;;;;;;5114344;28;20200;-75
2022/09/29 09:16:52;;;;;;;9.88;5.57;;;14.70;99.90;;;;;;5114129;28;20195;-75
2022/09/29 09:19:39;;;;;;;6.97;5.18;;;14.80;99.90;;;;;;5114157;28;20203;-76
2022/09/29 09:22:19;;;;;;;6.30;4.63;;;14.90;99.90;;;;;;5113806;28;20231;-76
2022/09/29 09:24:52;;;;;;;7.60;5.20;;;14.90;99.90;;;;;;5113883;28;20647;-76
2022/09/29 09:27:24;;;;;;;6.30;5.45;;;14.80;99.90;;;;;;5114116;28;20245;-75
2022/09/29 09:29:57;;;;;;;6.22;4.13;;;14.80;99.90;;;;;;5113849;28;20537;-75
2022/09/29 09:32:30;;;;;;;7.43;4.57;;;14.70;99.90;;;;;;5114025;28;20566;-76
2022/09/29 09:35:00;;;;;;;6.10;4.20;;;14.10;99.90;;;;;;5114228;28;20199;-76
2022/09/29 09:37:32;;;;;;;9.17;4.87;;;14.20;99.90;;;;;;5115726;28;20192;-77
2022/09/29 09:40:04;;;;;;;6.10;4.80;;;14.00;99.90;;;;;;5132122;28;20214;-75
2022/09/29 09:42:36;;;;;;;9.07;5.13;;;14.20;99.90;;;;;;5129890;28;20227;-76
2022/09/29 09:45:08;;;;;;;4.17;3.77;;;14.50;99.90;;;;;;5132608;28;20199;-75
2022/09/29 09:47:42;;;;;;;6.83;4.47;;;14.50;99.90;;;;;;5120897;28;20207;-76
2022/09/29 09:50:14;;;;;;;5.23;3.73;;;14.50;99.90;;;;;;5121201;28;20244;-75
2022/09/29 09:52:44;;;;;;;3.80;3.38;;;14.40;99.90;;;;;;5113849;28;20223;-76
2022/09/29 09:55:16;;;;;;;5.60;3.53;;;14.20;99.90;;;;;;5113543;28;20264;-76
2022/09/29 09:58:02;;;;;;;7.23;3.97;;;14.30;99.90;;;;;;5113544;28;20192;-76
2022/09/29 10:00:33;;;;;;;4.57;3.80;;;14.30;99.90;;;;;;5113446;28;20234;-76
2022/09/29 10:03:05;;;;;;;7.63;4.67;;;14.00;99.90;;;;;;5113254;28;20227;-76
2022/09/29 10:05:37;;;;;;;7.23;4.60;;;13.70;99.90;;;;;;5113518;28;20199;-75
2022/09/29 10:08:05;;;;;;;5.60;4.30;;;14.00;99.90;;;;;;5113395;28;20192;-76
2022/09/29 10:10:32;;;;;;;5.40;4.07;;;14.00;99.90;;;;;;5113374;28;20229;-76
2022/09/29 10:13:04;;;;;;;6.97;3.83;;;14.10;99.90;;;;;;5113208;28;20195;-76
2022/09/29 10:15:35;;;;;;;5.43;3.70;;;14.40;99.90;;;;;;5113496;28;20199;-76
2022/09/29 10:18:10;;;;;;;5.13;3.90;;;14.40;99.90;;;;;;5113243;28;20532;-76
2022/09/29 10:20:40;;;;;;;8.23;3.50;;;14.60;99.90;;;;;;5113253;28;20201;-76
2022/09/29 10:23:28;;;;;;;4.70;3.90;;;14.80;99.90;;;;;;5113162;28;20235;-77
2022/09/29 10:25:59;;;;;;;6.07;4.17;;;14.90;99.90;;;;;;5113405;28;20200;-76
2022/09/29 10:28:30;;;;;;;4.93;4.10;;;14.90;99.90;;;;;;5113236;28;20195;-74
2022/09/29 10:30:57;;;;;;;6.00;4.20;;;14.80;99.90;;;;;;5113163;28;20253;-76
2022/09/29 10:33:26;;;;;;;6.20;4.57;;;15.30;99.90;;;;;;5112996;28;20240;-77
2022/09/29 10:36:06;;;;;;;8.83;5.00;;;15.20;99.90;;;;;;5112853;28;20245;-74
2022/09/29 10:38:32;;;;;;;6.68;4.47;;;15.30;99.90;;;;;;5113114;28;20256;-74
2022/09/29 10:41:02;;;;;;;5.43;4.40;;;15.90;99.90;;;;;;5112797;28;20203;-75
2022/09/29 10:43:35;;;;;;;5.93;4.78;;;16.40;99.90;;;;;;5112683;28;20280;-75
2022/09/29 10:46:02;;;;;;;6.22;4.15;;;16.90;99.90;;;;;;5112858;28;20726;-75
2022/09/29 10:48:30;;;;;;;6.55;4.18;;;17.40;99.90;;;;;;5112544;28;20196;-75
2022/09/29 10:50:59;;;;;;;4.95;4.03;;;17.10;99.90;;;;;;5112755;28;20191;-76
2022/09/29 10:53:35;;;;;;;6.68;4.20;;;15.80;99.90;;;;;;5112828;28;20204;-76
2022/09/29 10:56:08;;;;;;;4.55;3.65;;;15.40;99.90;;;;;;5112824;28;20195;-75
2022/09/29 10:58:37;;;;;;;5.22;3.63;;;15.90;99.90;;;;;;5112766;28;20256;-76
2022/09/29 11:01:07;;;;;;;5.30;3.20;;;16.70;99.90;;;;;;5112753;28;20192;-76
2022/09/29 11:03:39;;;;;;;4.90;3.05;;;17.70;99.90;;;;;;5112719;28;20319;-76
2022/09/29 11:06:10;;;;;;;4.35;2.88;;;19.00;99.90;;;;;;5112949;28;20256;-76
2022/09/29 11:08:56;;;;;;;17.27;4.78;;;18.70;99.90;;;;;;5112862;28;20192;-76
2022/09/29 11:11:27;;;;;;;8.52;3.08;;;17.90;99.90;;;;;;5112846;28;20225;-76
2022/09/29 11:13:54;;;;;;;4.55;2.58;;;16.60;99.90;;;;;;5112794;28;20196;-76
2022/09/29 11:16:30;;;;;;;3.95;2.65;;;16.60;99.90;;;;;;5115554;28;20202;-76
2022/09/29 11:19:03;;;;;;;4.32;2.47;;;16.40;99.90;;;;;;5116382;28;20651;-76
2022/09/29 11:21:51;;;;;;;5.40;2.63;;;15.80;99.90;;;;;;5116477;28;20200;-76
2022/09/29 11:24:29;;;;;;;4.30;2.60;;;15.40;99.90;;;;;;5116563;28;20340;-76
2022/09/29 11:27:06;;;;;;;14.35;3.33;;;15.20;99.90;;;;;;5116305;28;20225;-76
2022/09/29 11:29:42;;;;;;;6.88;3.90;;;15.00;99.90;;;;;;5116159;28;20253;-76
2022/09/29 11:32:28;;;;;;;5.40;3.60;;;14.80;99.90;;;;;;5116221;28;20310;-76
2022/09/29 11:35:26;;;;;;;7.87;3.60;;;14.70;99.90;;;;;;5116259;28;20210;-76
2022/09/29 11:38:12;;;;;;;5.80;3.17;;;14.40;99.90;;;;;;5116097;28;20199;-76
2022/09/29 11:40:50;;;;;;;6.07;2.80;;;14.40;99.90;;;;;;5116233;28;20191;-76
2022/09/29 11:43:31;;;;;;;3.63;2.60;;;14.20;99.90;;;;;;5116166;28;20227;-76
2022/09/29 11:46:08;;;;;;;4.20;2.90;;;14.20;99.90;;;;;;5116103;28;20199;-76
2022/09/29 11:48:54;;;;;;;5.53;2.90;;;14.10;99.90;;;;;;5115941;28;20195;-76
2022/09/29 11:51:29;;;;;;;8.10;3.30;;;14.00;99.90;;;;;;5115775;28;20589;-76
2022/09/29 11:54:18;;;;;;;5.10;3.20;;;13.60;99.90;;;;;;5115866;28;20195;-76
2022/09/29 11:56:51;;;;;;;5.67;3.50;;;13.40;99.90;;;;;;5115707;28;20784;-76
2022/09/29 11:59:37;;;;;;;5.80;2.87;;;13.20;99.90;;;;;;5115915;28;20202;-76
2022/09/29 12:02:27;;;;;;;6.17;3.30;;;13.20;99.90;;;;;;5115937;28;20227;-76
2022/09/29 12:05:01;;;;;;;6.23;4.20;;;13.20;99.90;;;;;;5116052;28;20204;-76
2022/09/29 12:07:39;;;;;;;13.37;4.30;;;13.20;99.90;;;;;;5115872;28;20264;-74
2022/09/29 12:10:24;;;;;;;8.80;4.80;;;13.00;99.90;;;;;;5115742;28;20651;-74
2022/09/29 12:13:00;;;;;;;7.77;5.03;;;12.90;99.90;;;;;;5115719;28;20658;-74
2022/09/29 12:15:35;;;;;;;5.40;4.63;;;12.70;99.90;;;;;;5115737;28;20666;-74
2022/09/29 12:18:08;;;;;;;4.57;3.70;;;12.60;99.90;;;;;;5115333;28;20195;-74
2022/09/29 12:20:38;;;;;;;7.90;4.30;;;12.50;99.90;;;;;;5115485;28;20245;-74
2022/09/29 12:23:16;;;;;;;7.43;2.80;;;12.60;99.90;;;;;;5115006;28;20240;-75
2022/09/29 12:25:50;;;;;;;4.70;2.83;;;12.60;99.90;;;;;;5115472;28;20248;-75
2022/09/29 12:28:22;;;;;;;7.03;2.47;;;12.90;99.90;;;;;;5114343;28;20257;-74
2022/09/29 12:30:55;;;;;;;2.97;1.90;;;12.90;99.90;;;;;;5115820;28;20192;-75
2022/09/29 12:33:25;;;;;;;2.70;1.73;;;13.10;99.90;;;;;;5115937;28;20195;-75
2022/09/29 12:36:02;;;;;;;2.23;1.77;;;13.50;99.90;;;;;;5121957;28;20195;-74
2022/09/29 12:38:35;;;;;;;4.73;1.90;;;13.80;99.90;;;;;;5115307;28;20207;-74
2022/09/29 12:41:12;;;;;;;2.33;1.60;;;14.70;99.90;;;;;;5115056;28;20246;-75
2022/09/29 12:43:46;;;;;;;2.57;1.80;;;15.80;99.90;;;;;;5115146;28;20223;-75
2022/09/29 12:46:20;;;;;;;2.92;1.77;;;17.50;99.90;;;;;;5114944;28;20199;-74
2022/09/29 12:48:55;;;;;;;3.25;1.60;;;18.70;99.90;;;;;;5114918;28;20199;-74
2022/09/29 12:51:29;;;;;;;2.05;1.77;;;19.30;99.90;;;;;;5115193;28;20199;-75
2022/09/29 12:54:11;;;;;;;8.23;2.80;;;19.10;99.90;;;;;;5114642;28;20244;-74
2022/09/29 12:56:42;;;;;;;3.22;2.70;;;18.40;99.90;;;;;;5114507;28;20196;-75
2022/09/29 12:59:16;;;;;;;4.43;2.30;;;17.00;99.90;;;;;;5114507;28;20568;-76
2022/09/29 13:01:43;;;;;;;5.00;2.40;;;15.60;99.90;;;;;;5114286;28;20210;-75